Big Sandy, Montana
Current Conditions -  °F | °C
As of 7:53 AM on Thursday 23 Oct 2014 (Local Time) from KHVR Reporting Station
Clear Clear  
Wind Chill: 12°   Ceiling: Unl
Heat Index: 12°   Visibility: 10mi
Dew Point:   Wind: 15mph
Humidity: 50%   Direction: 220°SW
Pressure: 29.73"   Gusts: NA
Location:  48.18°N, 110.11°W
Report Text: KHVR 231353Z AUTO 22013KT 10SM CLR 12/02 A2973 RMK AO2 SLP070 T01170017
Loading
Personal Weather Stations






























Interactive Weather Map
Tropical Storm Tracking
New forecast layout! Learn more

10-Day Weather Forecast

Advertisements
Track Severe Weather on mobile